Nearby METAR Reports

 

KBVO - Bartlesville, Oklahoma, USA
Distance from station: WNW 10mi, 16km
Updated: Mon, 08-Aug-2022 12:53am CDT
Clear
Clear
 Wind from S
Wind: S 3 mph , 6 km/h
Temperature: 79°F , 26°C
Dew Point: 72°F , 22°C
Humidity: 79%
Barometer: 30.02 inHg , 1016.6 hPa
Clouds: Clear
Visibility: 10 miles , 16 km
2022/08/08 05:53 KBVO 080553Z AUTO 19003KT 10SM CLR 26/22 A3002 RMK AO2 SLP151 T02610222 10339 20261 403670228 50001
KCFV - Coffeyville, Kansas, USA
Distance from station: NNE 31mi, 49km
Updated: Mon, 08-Aug-2022 12:52am CDT
Clear
Clear
 Wind from S
Wind: S 6 mph , 9 km/h
Temperature: 82°F , 28°C
Heat Index: 86°F , 30°C
Dew Point: 72°F , 22°C
Humidity: 70%
Barometer: 30.00 inHg , 1015.9 hPa
Clouds: Clear
Visibility: 10 miles , 16 km
2022/08/08 05:52 KCFV 080552Z AUTO 17005KT 10SM CLR 28/22 A3000 RMK AO2 SLP148 T02780222 10350 20278 403720250 58001 $
 
KIDP - Independence, Kansas, USA
Distance from station: N 32mi, 52km
Updated: Mon, 08-Aug-2022 1:15am CDT
Clear
Clear
 Wind from S
Wind: S 9 mph , 15 km/h
Temperature: 81°F , 27°C
Heat Index: 85°F , 29°C
Dew Point: 72°F , 22°C
Humidity: 74%
Barometer: 30.00 inHg , 1015.9 hPa
Clouds: Clear
Visibility: 10 miles , 16 km
2022/08/08 06:15 KIDP 080615Z AUTO 17008KT 10SM CLR 27/22 A3000 RMK AO2 T02670219
KGCM - Claremore, Oklahoma, USA
Distance from station: SE 35mi, 56km
Updated: Mon, 08-Aug-2022 1:15am CDT
Clear
Clear
 Wind from S
Wind: S 3 mph , 6 km/h
Temperature: 79°F , 26°C
Dew Point: 70°F , 21°C
Humidity: 74%
Barometer: 30.03 inHg , 1016.9 hPa
Clouds: Clear
Visibility: 10 miles , 16 km
2022/08/08 06:15 KGCM 080615Z AUTO 18003KT 10SM CLR 26/21 A3003 RMK AO2
 
KTUL - Tulsa, Oklahoma, USA
Distance from station: S 35mi, 56km
Updated: Mon, 08-Aug-2022 12:53am CDT
Partly cloudy
Partly cloudy
 Wind from S
Wind: S 12 mph , 19 km/h
Temperature: 86°F , 30°C
Heat Index: 91°F , 33°C
Dew Point: 70°F , 21°C
Humidity: 59%
Barometer: 30.00 inHg , 1015.9 hPa
Clouds: Partly cloudy
Visibility: 10 miles , 16 km
Cloud details: Partly cloudy 25000 ft
2022/08/08 05:53 KTUL 080553Z 17010KT 10SM SCT250 30/21 A3000 RMK AO2 SLP148 T03000206 10350 20300 403670261 50001
KRVS - Tulsa, Oklahoma, USA
Distance from station: S 46mi, 74km
Updated: Mon, 08-Aug-2022 12:53am CDT
Clear
Clear
 Wind from S
Wind: S 3 mph , 6 km/h
Temperature: 81°F , 27°C
Heat Index: 85°F , 29°C
Dew Point: 70°F , 21°C
Humidity: 70%
Barometer: 30.01 inHg , 1016.3 hPa
Clouds: Clear
Visibility: 10 miles , 16 km
2022/08/08 05:53 KRVS 080553Z AUTO 19003KT 10SM CLR 27/21 A3001 RMK AO2 SLP164 T02720211 10356 20261 403670239 50004
 
KPPF - Parsons, Kansas, USA
Distance from station: NNE 48mi, 76km
Updated: Mon, 08-Aug-2022 12:52am CDT
Clear
Clear
 Wind from calm
Wind: Calm
Temperature: 82°F , 28°C
Heat Index: 86°F , 30°C
Dew Point: 70°F , 21°C
Humidity: 66%
Barometer: 30.03 inHg , 1016.9 hPa
Clouds: Clear
Visibility: 10 miles , 16 km
2022/08/08 05:52 KPPF 080552Z AUTO 00000KT 10SM CLR 28/21 A3003 RMK AO2 SLP154 T02780211 10339 20278 403780250 58001
KGMJ - Grove, Oklahoma, USA
Distance from station: E 63mi, 101km
Updated: Mon, 08-Aug-2022 1:15am CDT
Clear
Clear
 Wind from SSE
Wind: SSE 5 mph , 7 km/h
Temperature: 81°F , 27°C
Heat Index: 85°F , 29°C
Dew Point: 70°F , 21°C
Humidity: 70%
Barometer: 30.05 inHg , 1017.6 hPa
Clouds: Clear
2022/08/08 06:15 KGMJ 080615Z AUTO 15004KT CLR 27/21 A3005 RMK AO2 PWINO
 
KPNC - Ponca City, Oklahoma, USA
Distance from station: W 69mi, 111km
Updated: Mon, 08-Aug-2022 12:53am CDT
Clear
Clear
 Wind from S
Wind: S 8 mph , 13 km/h
Temperature: 86°F , 30°C
Heat Index: 88°F , 31°C
Dew Point: 66°F , 19°C
Humidity: 52%
Barometer: 30.00 inHg , 1015.9 hPa
Clouds: Clear
Visibility: 10 miles , 16 km
2022/08/08 05:53 KPNC 080553Z AUTO 18007KT 10SM CLR 30/19 A3000 RMK AO2 SLP142 T03000189 10350 20300 403670267 50003
KCNU - Chanute, Kansas, USA
Distance from station: NNE 69mi, 112km
Updated: Mon, 08-Aug-2022 12:52am CDT
Clear
Clear
 Wind from S
Wind: S 8 mph , 13 km/h
Temperature: 82°F , 28°C
Heat Index: 86°F , 30°C
Dew Point: 72°F , 22°C
Humidity: 70%
Barometer: 30.01 inHg , 1016.3 hPa
Clouds: Clear
Visibility: 10 miles , 16 km
2022/08/08 05:52 KCNU 080552Z AUTO 18007KT 10SM CLR 28/22 A3001 RMK AO2 SLP148 T02830217 10356 20283 403890256 58002